Weather at Point Farm Heliport

Public forecast

Using degrees Fahrenheit for public forecast. Weather courtesy of forecast.io.

Closest aviation weather report (METAR) to Point Farm Heliport

Closest report is Langley Air Force Base, 21.4 nm (39.6 km) SW. Retrieved 2020/11/24 19:56 UTC (10 minutes ago):

KLFI 241956Z 05005KT 10SM SCT120 10/01 A3037 RMK AO2A SLP291 T01030014

Closest aviation forecast (TAF) to Point Farm Heliport

Closest forecast is Langley Air Force Base, 21.4 nm (39.6 km) SW. Retrieved 2020/11/24 18:00 UTC (2 hours ago):

TAF KLFI 241800Z 2418/2524 36006KT 9999 SCT100 QNH3039INS BECMG 2505/2506 17006KT 9999 SCT200 QNH3040INS BECMG 2519/2520 18012KT 9999 SCT020 BKN035 QNH3033INS TX14/2518Z TN08/2512Z